Terminal Aerodrome Forecast
Issued by NWS Melbourne, FL

Home | Current Version | Previous Version | Text Only | Print | Product List | Glossary On
Versions: 1 2 3 4 5 6 7 8 9 10 11 12
000
FTUS42 KMLB 271727
TAFVRB
TAF
KVRB 271727Z 2718/2818 12010KT P6SM VCTS SCT040CB BKN250
     FM272300 17006KT P6SM FEW035 SCT070 SCT250
     FM281400 21007KT P6SM SCT030 SCT250=

USA.gov is the U.S. government's official web portal to all federal, state and local government web resources and services.